sensor_id;sensor_type;location;lat;lon;timestamp;P1;durP1;ratioP1;P2;durP2;ratioP2
52742;SDS011;55583;53.012;6.556;2023-07-31T00:00:28;9.77;;;4.95;;
52742;SDS011;55583;53.012;6.556;2023-07-31T00:02:54;9.52;;;5.38;;
52742;SDS011;55583;53.012;6.556;2023-07-31T00:05:19;13.68;;;5.43;;
52742;SDS011;55583;53.012;6.556;2023-07-31T00:10:22;11.38;;;6.25;;
52742;SDS011;55583;53.012;6.556;2023-07-31T00:12:48;21.08;;;6.95;;
52742;SDS011;55583;53.012;6.556;2023-07-31T00:15:14;14.10;;;6.72;;
52742;SDS011;55583;53.012;6.556;2023-07-31T00:17:40;9.55;;;7.03;;
52742;SDS011;55583;53.012;6.556;2023-07-31T00:20:06;13.30;;;6.97;;
52742;SDS011;55583;53.012;6.556;2023-07-31T00:22:32;20.13;;;7.25;;
52742;SDS011;55583;53.012;6.556;2023-07-31T00:24:57;16.77;;;8.90;;
52742;SDS011;55583;53.012;6.556;2023-07-31T00:27:24;18.17;;;8.40;;
52742;SDS011;55583;53.012;6.556;2023-07-31T00:29:50;15.23;;;7.65;;
52742;SDS011;55583;53.012;6.556;2023-07-31T00:32:16;13.23;;;6.55;;
52742;SDS011;55583;53.012;6.556;2023-07-31T00:34:41;16.00;;;7.60;;
52742;SDS011;55583;53.012;6.556;2023-07-31T00:37:07;18.55;;;7.28;;
52742;SDS011;55583;53.012;6.556;2023-07-31T00:39:33;34.83;;;9.32;;
52742;SDS011;55583;53.012;6.556;2023-07-31T00:41:59;13.15;;;7.47;;
52742;SDS011;55583;53.012;6.556;2023-07-31T00:44:25;20.33;;;8.23;;
52742;SDS011;55583;53.012;6.556;2023-07-31T00:46:51;21.40;;;9.45;;
52742;SDS011;55583;53.012;6.556;2023-07-31T00:49:17;30.25;;;10.40;;
52742;SDS011;55583;53.012;6.556;2023-07-31T00:51:43;36.00;;;10.63;;
52742;SDS011;55583;53.012;6.556;2023-07-31T00:54:09;39.60;;;11.73;;
52742;SDS011;55583;53.012;6.556;2023-07-31T00:56:35;20.75;;;8.30;;
52742;SDS011;55583;53.012;6.556;2023-07-31T00:59:02;12.07;;;7.88;;
52742;SDS011;55583;53.012;6.556;2023-07-31T01:01:28;15.32;;;7.95;;
52742;SDS011;55583;53.012;6.556;2023-07-31T01:03:53;31.02;;;11.20;;
52742;SDS011;55583;53.012;6.556;2023-07-31T01:06:26;29.33;;;10.52;;
52742;SDS011;55583;53.012;6.556;2023-07-31T01:11:38;29.25;;;10.35;;
52742;SDS011;55583;53.012;6.556;2023-07-31T01:14:10;13.13;;;7.13;;
52742;SDS011;55583;53.012;6.556;2023-07-31T01:16:36;21.20;;;8.70;;
52742;SDS011;55583;53.012;6.556;2023-07-31T01:19:02;20.85;;;7.40;;
52742;SDS011;55583;53.012;6.556;2023-07-31T01:24:32;9.55;;;4.68;;
52742;SDS011;55583;53.012;6.556;2023-07-31T01:27:23;16.90;;;5.82;;
52742;SDS011;55583;53.012;6.556;2023-07-31T01:30:10;8.70;;;4.38;;
52742;SDS011;55583;53.012;6.556;2023-07-31T01:32:42;17.02;;;5.53;;
52742;SDS011;55583;53.012;6.556;2023-07-31T01:35:08;15.63;;;5.50;;
52742;SDS011;55583;53.012;6.556;2023-07-31T01:37:35;9.52;;;3.97;;
52742;SDS011;55583;53.012;6.556;2023-07-31T01:40:01;8.35;;;3.83;;
52742;SDS011;55583;53.012;6.556;2023-07-31T01:42:26;8.82;;;4.05;;
52742;SDS011;55583;53.012;6.556;2023-07-31T01:44:52;18.33;;;4.97;;
52742;SDS011;55583;53.012;6.556;2023-07-31T01:47:18;7.45;;;2.85;;
52742;SDS011;55583;53.012;6.556;2023-07-31T01:49:43;7.32;;;2.10;;
52742;SDS011;55583;53.012;6.556;2023-07-31T01:52:09;9.85;;;3.33;;
52742;SDS011;55583;53.012;6.556;2023-07-31T01:54:34;7.95;;;2.85;;
52742;SDS011;55583;53.012;6.556;2023-07-31T01:57:01;5.05;;;2.42;;
52742;SDS011;55583;53.012;6.556;2023-07-31T01:59:27;8.88;;;3.10;;
52742;SDS011;55583;53.012;6.556;2023-07-31T02:01:54;3.63;;;2.20;;
52742;SDS011;55583;53.012;6.556;2023-07-31T02:04:19;4.07;;;2.72;;
52742;SDS011;55583;53.012;6.556;2023-07-31T02:06:45;4.57;;;2.28;;
52742;SDS011;55583;53.012;6.556;2023-07-31T02:09:10;5.97;;;2.30;;
52742;SDS011;55583;53.012;6.556;2023-07-31T02:11:36;4.95;;;2.00;;
52742;SDS011;55583;53.012;6.556;2023-07-31T02:14:02;5.80;;;2.25;;
52742;SDS011;55583;53.012;6.556;2023-07-31T02:16:27;2.90;;;1.90;;
52742;SDS011;55583;53.012;6.556;2023-07-31T02:18:53;6.13;;;2.55;;
52742;SDS011;55583;53.012;6.556;2023-07-31T02:21:18;8.30;;;2.85;;
52742;SDS011;55583;53.012;6.556;2023-07-31T02:23:44;4.40;;;2.20;;
52742;SDS011;55583;53.012;6.556;2023-07-31T02:26:10;3.60;;;2.40;;
52742;SDS011;55583;53.012;6.556;2023-07-31T02:28:35;5.32;;;2.30;;
52742;SDS011;55583;53.012;6.556;2023-07-31T02:31:01;5.75;;;2.50;;
52742;SDS011;55583;53.012;6.556;2023-07-31T02:33:27;10.15;;;3.03;;
52742;SDS011;55583;53.012;6.556;2023-07-31T02:35:52;5.43;;;2.70;;
52742;SDS011;55583;53.012;6.556;2023-07-31T02:38:18;9.95;;;2.40;;
52742;SDS011;55583;53.012;6.556;2023-07-31T02:40:44;4.68;;;2.40;;
52742;SDS011;55583;53.012;6.556;2023-07-31T02:43:09;5.55;;;3.08;;
52742;SDS011;55583;53.012;6.556;2023-07-31T02:45:35;13.07;;;4.40;;
52742;SDS011;55583;53.012;6.556;2023-07-31T02:48:01;7.53;;;2.75;;
52742;SDS011;55583;53.012;6.556;2023-07-31T02:50:26;8.30;;;3.50;;
52742;SDS011;55583;53.012;6.556;2023-07-31T02:52:55;9.23;;;3.00;;
52742;SDS011;55583;53.012;6.556;2023-07-31T02:55:20;9.75;;;3.65;;
52742;SDS011;55583;53.012;6.556;2023-07-31T02:57:46;6.90;;;3.03;;
52742;SDS011;55583;53.012;6.556;2023-07-31T03:00:12;13.02;;;4.05;;
52742;SDS011;55583;53.012;6.556;2023-07-31T03:02:38;11.20;;;3.13;;
52742;SDS011;55583;53.012;6.556;2023-07-31T03:05:04;15.80;;;4.25;;
52742;SDS011;55583;53.012;6.556;2023-07-31T03:07:29;11.18;;;3.78;;
52742;SDS011;55583;53.012;6.556;2023-07-31T03:09:55;4.88;;;2.63;;
52742;SDS011;55583;53.012;6.556;2023-07-31T03:12:21;7.72;;;2.58;;
52742;SDS011;55583;53.012;6.556;2023-07-31T03:14:47;9.30;;;3.00;;
52742;SDS011;55583;53.012;6.556;2023-07-31T03:17:12;8.23;;;3.08;;
52742;SDS011;55583;53.012;6.556;2023-07-31T03:19:38;12.45;;;3.50;;
52742;SDS011;55583;53.012;6.556;2023-07-31T03:22:04;7.90;;;2.90;;
52742;SDS011;55583;53.012;6.556;2023-07-31T03:24:30;11.00;;;4.07;;
52742;SDS011;55583;53.012;6.556;2023-07-31T03:26:55;6.28;;;3.00;;
52742;SDS011;55583;53.012;6.556;2023-07-31T03:29:21;7.63;;;2.65;;
52742;SDS011;55583;53.012;6.556;2023-07-31T03:31:47;5.75;;;2.50;;
52742;SDS011;55583;53.012;6.556;2023-07-31T03:34:12;5.00;;;2.53;;
52742;SDS011;55583;53.012;6.556;2023-07-31T03:36:38;2.65;;;1.77;;
52742;SDS011;55583;53.012;6.556;2023-07-31T03:39:04;4.30;;;1.90;;
52742;SDS011;55583;53.012;6.556;2023-07-31T03:41:29;5.22;;;2.38;;
52742;SDS011;55583;53.012;6.556;2023-07-31T03:43:55;3.10;;;2.00;;
52742;SDS011;55583;53.012;6.556;2023-07-31T03:46:24;4.60;;;1.95;;
52742;SDS011;55583;53.012;6.556;2023-07-31T03:48:50;3.55;;;1.63;;
52742;SDS011;55583;53.012;6.556;2023-07-31T03:51:16;3.10;;;1.95;;
52742;SDS011;55583;53.012;6.556;2023-07-31T03:53:42;3.90;;;2.08;;
52742;SDS011;55583;53.012;6.556;2023-07-31T03:56:08;3.95;;;2.05;;
52742;SDS011;55583;53.012;6.556;2023-07-31T03:58:34;3.17;;;1.95;;
52742;SDS011;55583;53.012;6.556;2023-07-31T04:01:01;2.13;;;1.92;;
52742;SDS011;55583;53.012;6.556;2023-07-31T04:03:26;4.25;;;1.65;;
52742;SDS011;55583;53.012;6.556;2023-07-31T04:05:53;5.20;;;2.42;;
52742;SDS011;55583;53.012;6.556;2023-07-31T04:08:21;5.68;;;2.72;;
52742;SDS011;55583;53.012;6.556;2023-07-31T04:10:46;4.40;;;2.03;;
52742;SDS011;55583;53.012;6.556;2023-07-31T04:13:12;5.18;;;2.00;;
52742;SDS011;55583;53.012;6.556;2023-07-31T04:15:38;6.15;;;2.60;;
52742;SDS011;55583;53.012;6.556;2023-07-31T04:18:04;5.53;;;2.63;;
52742;SDS011;55583;53.012;6.556;2023-07-31T04:20:30;5.78;;;2.92;;
52742;SDS011;55583;53.012;6.556;2023-07-31T04:22:55;11.13;;;2.75;;
52742;SDS011;55583;53.012;6.556;2023-07-31T04:25:21;6.55;;;2.50;;
52742;SDS011;55583;53.012;6.556;2023-07-31T04:27:47;5.30;;;2.13;;
52742;SDS011;55583;53.012;6.556;2023-07-31T04:30:13;6.38;;;2.65;;
52742;SDS011;55583;53.012;6.556;2023-07-31T04:32:38;7.85;;;2.65;;
52742;SDS011;55583;53.012;6.556;2023-07-31T04:35:04;4.30;;;2.28;;
52742;SDS011;55583;53.012;6.556;2023-07-31T04:37:30;4.47;;;2.72;;
52742;SDS011;55583;53.012;6.556;2023-07-31T04:39:56;6.15;;;2.80;;
52742;SDS011;55583;53.012;6.556;2023-07-31T04:42:22;8.85;;;3.20;;
52742;SDS011;55583;53.012;6.556;2023-07-31T04:44:47;4.88;;;2.20;;
52742;SDS011;55583;53.012;6.556;2023-07-31T04:47:13;10.43;;;3.58;;
52742;SDS011;55583;53.012;6.556;2023-07-31T04:49:39;10.60;;;3.40;;
52742;SDS011;55583;53.012;6.556;2023-07-31T04:52:04;14.35;;;3.83;;
52742;SDS011;55583;53.012;6.556;2023-07-31T04:54:30;7.20;;;3.17;;
52742;SDS011;55583;53.012;6.556;2023-07-31T04:56:56;14.05;;;3.22;;
52742;SDS011;55583;53.012;6.556;2023-07-31T04:59:22;11.65;;;3.83;;
52742;SDS011;55583;53.012;6.556;2023-07-31T05:01:47;14.20;;;2.75;;
52742;SDS011;55583;53.012;6.556;2023-07-31T05:04:13;14.48;;;3.22;;
52742;SDS011;55583;53.012;6.556;2023-07-31T05:06:40;7.65;;;3.40;;
52742;SDS011;55583;53.012;6.556;2023-07-31T05:09:06;8.63;;;2.47;;
52742;SDS011;55583;53.012;6.556;2023-07-31T05:11:32;9.68;;;2.90;;
52742;SDS011;55583;53.012;6.556;2023-07-31T05:13:58;9.68;;;3.25;;
52742;SDS011;55583;53.012;6.556;2023-07-31T05:16:23;7.03;;;3.22;;
52742;SDS011;55583;53.012;6.556;2023-07-31T05:18:49;8.10;;;2.78;;
52742;SDS011;55583;53.012;6.556;2023-07-31T05:21:14;14.30;;;4.20;;
52742;SDS011;55583;53.012;6.556;2023-07-31T05:23:40;15.63;;;4.25;;
52742;SDS011;55583;53.012;6.556;2023-07-31T05:26:06;13.93;;;3.97;;
52742;SDS011;55583;53.012;6.556;2023-07-31T05:28:33;23.08;;;4.75;;
52742;SDS011;55583;53.012;6.556;2023-07-31T05:31:00;17.58;;;5.45;;
52742;SDS011;55583;53.012;6.556;2023-07-31T05:33:26;21.13;;;5.28;;
52742;SDS011;55583;53.012;6.556;2023-07-31T05:35:52;28.42;;;7.63;;
52742;SDS011;55583;53.012;6.556;2023-07-31T05:38:18;26.73;;;7.65;;
52742;SDS011;55583;53.012;6.556;2023-07-31T05:40:44;27.17;;;8.68;;
52742;SDS011;55583;53.012;6.556;2023-07-31T05:43:09;35.13;;;10.25;;
52742;SDS011;55583;53.012;6.556;2023-07-31T05:45:35;38.45;;;9.32;;
52742;SDS011;55583;53.012;6.556;2023-07-31T05:48:01;43.58;;;11.30;;
52742;SDS011;55583;53.012;6.556;2023-07-31T05:50:27;46.58;;;11.15;;
52742;SDS011;55583;53.012;6.556;2023-07-31T05:53:10;85.18;;;16.40;;
52742;SDS011;55583;53.012;6.556;2023-07-31T05:55:46;73.78;;;14.20;;
52742;SDS011;55583;53.012;6.556;2023-07-31T05:58:11;55.97;;;14.18;;
52742;SDS011;55583;53.012;6.556;2023-07-31T06:00:37;76.25;;;15.10;;
52742;SDS011;55583;53.012;6.556;2023-07-31T06:03:02;68.68;;;16.10;;
52742;SDS011;55583;53.012;6.556;2023-07-31T06:05:29;48.75;;;12.88;;
52742;SDS011;55583;53.012;6.556;2023-07-31T06:07:55;72.45;;;14.27;;
52742;SDS011;55583;53.012;6.556;2023-07-31T06:10:22;71.47;;;15.10;;
52742;SDS011;55583;53.012;6.556;2023-07-31T06:12:47;61.80;;;13.50;;
52742;SDS011;55583;53.012;6.556;2023-07-31T06:15:13;90.28;;;15.95;;
52742;SDS011;55583;53.012;6.556;2023-07-31T06:17:39;79.80;;;16.92;;
52742;SDS011;55583;53.012;6.556;2023-07-31T06:20:06;71.85;;;16.60;;
52742;SDS011;55583;53.012;6.556;2023-07-31T06:22:32;48.67;;;13.68;;
52742;SDS011;55583;53.012;6.556;2023-07-31T06:24:58;68.30;;;14.32;;
52742;SDS011;55583;53.012;6.556;2023-07-31T06:27:23;56.63;;;14.55;;
52742;SDS011;55583;53.012;6.556;2023-07-31T06:29:49;96.13;;;17.63;;
52742;SDS011;55583;53.012;6.556;2023-07-31T06:32:15;96.65;;;16.10;;
52742;SDS011;55583;53.012;6.556;2023-07-31T06:34:41;75.85;;;15.35;;
52742;SDS011;55583;53.012;6.556;2023-07-31T06:37:06;52.47;;;12.85;;
52742;SDS011;55583;53.012;6.556;2023-07-31T06:39:32;48.45;;;10.90;;
52742;SDS011;55583;53.012;6.556;2023-07-31T06:41:57;85.72;;;16.02;;
52742;SDS011;55583;53.012;6.556;2023-07-31T06:44:23;55.65;;;13.10;;
52742;SDS011;55583;53.012;6.556;2023-07-31T06:46:49;39.28;;;11.43;;
52742;SDS011;55583;53.012;6.556;2023-07-31T06:49:14;60.35;;;13.88;;
52742;SDS011;55583;53.012;6.556;2023-07-31T06:51:40;45.72;;;12.18;;
52742;SDS011;55583;53.012;6.556;2023-07-31T07:01:44;50.58;;;12.45;;
52742;SDS011;55583;53.012;6.556;2023-07-31T07:04:10;48.67;;;11.63;;
52742;SDS011;55583;53.012;6.556;2023-07-31T07:06:35;51.28;;;12.80;;
52742;SDS011;55583;53.012;6.556;2023-07-31T07:09:01;55.53;;;11.90;;
52742;SDS011;55583;53.012;6.556;2023-07-31T07:11:28;61.92;;;13.73;;
52742;SDS011;55583;53.012;6.556;2023-07-31T07:13:53;43.47;;;11.70;;
52742;SDS011;55583;53.012;6.556;2023-07-31T07:16:19;44.47;;;12.10;;
52742;SDS011;55583;53.012;6.556;2023-07-31T07:18:45;44.60;;;11.23;;
52742;SDS011;55583;53.012;6.556;2023-07-31T07:21:10;42.47;;;12.32;;
52742;SDS011;55583;53.012;6.556;2023-07-31T07:23:40;37.47;;;9.73;;
52742;SDS011;55583;53.012;6.556;2023-07-31T07:26:06;72.25;;;15.05;;
52742;SDS011;55583;53.012;6.556;2023-07-31T07:28:32;25.05;;;10.30;;
52742;SDS011;55583;53.012;6.556;2023-07-31T07:30:58;68.55;;;13.80;;
52742;SDS011;55583;53.012;6.556;2023-07-31T07:33:23;33.47;;;8.52;;
52742;SDS011;55583;53.012;6.556;2023-07-31T07:35:49;28.58;;;7.50;;
52742;SDS011;55583;53.012;6.556;2023-07-31T07:38:14;29.15;;;8.57;;
52742;SDS011;55583;53.012;6.556;2023-07-31T07:40:40;24.13;;;7.78;;
52742;SDS011;55583;53.012;6.556;2023-07-31T07:43:06;20.38;;;7.25;;
52742;SDS011;55583;53.012;6.556;2023-07-31T07:45:32;15.18;;;5.88;;
52742;SDS011;55583;53.012;6.556;2023-07-31T07:47:57;14.95;;;5.32;;
52742;SDS011;55583;53.012;6.556;2023-07-31T07:50:24;18.27;;;6.00;;
52742;SDS011;55583;53.012;6.556;2023-07-31T07:52:50;13.23;;;5.60;;
52742;SDS011;55583;53.012;6.556;2023-07-31T07:55:16;12.25;;;5.15;;
52742;SDS011;55583;53.012;6.556;2023-07-31T07:57:41;8.55;;;4.80;;
52742;SDS011;55583;53.012;6.556;2023-07-31T08:00:09;15.90;;;5.00;;
52742;SDS011;55583;53.012;6.556;2023-07-31T08:02:35;15.35;;;5.93;;
52742;SDS011;55583;53.012;6.556;2023-07-31T08:05:01;11.55;;;5.07;;
52742;SDS011;55583;53.012;6.556;2023-07-31T08:07:26;15.15;;;4.97;;
52742;SDS011;55583;53.012;6.556;2023-07-31T08:09:52;11.10;;;4.40;;
52742;SDS011;55583;53.012;6.556;2023-07-31T08:12:18;10.18;;;4.75;;
52742;SDS011;55583;53.012;6.556;2023-07-31T08:14:44;9.13;;;4.10;;
52742;SDS011;55583;53.012;6.556;2023-07-31T08:17:09;16.20;;;5.07;;
52742;SDS011;55583;53.012;6.556;2023-07-31T08:19:35;13.25;;;4.82;;
52742;SDS011;55583;53.012;6.556;2023-07-31T08:22:01;12.45;;;4.63;;
52742;SDS011;55583;53.012;6.556;2023-07-31T08:24:26;12.75;;;5.22;;
52742;SDS011;55583;53.012;6.556;2023-07-31T08:26:52;6.35;;;3.55;;
52742;SDS011;55583;53.012;6.556;2023-07-31T08:29:18;8.07;;;4.13;;
52742;SDS011;55583;53.012;6.556;2023-07-31T08:31:43;7.65;;;3.45;;
52742;SDS011;55583;53.012;6.556;2023-07-31T08:34:09;6.63;;;3.42;;
52742;SDS011;55583;53.012;6.556;2023-07-31T08:36:34;9.65;;;3.60;;
52742;SDS011;55583;53.012;6.556;2023-07-31T08:39:00;6.00;;;3.13;;
52742;SDS011;55583;53.012;6.556;2023-07-31T08:41:26;4.68;;;2.88;;
52742;SDS011;55583;53.012;6.556;2023-07-31T08:43:52;5.60;;;2.65;;
52742;SDS011;55583;53.012;6.556;2023-07-31T08:46:20;7.65;;;3.45;;
52742;SDS011;55583;53.012;6.556;2023-07-31T08:48:46;4.20;;;2.70;;
52742;SDS011;55583;53.012;6.556;2023-07-31T08:51:14;11.30;;;3.47;;
52742;SDS011;55583;53.012;6.556;2023-07-31T08:53:40;4.70;;;3.33;;
52742;SDS011;55583;53.012;6.556;2023-07-31T08:56:06;4.65;;;2.85;;
52742;SDS011;55583;53.012;6.556;2023-07-31T08:58:32;4.70;;;2.63;;
52742;SDS011;55583;53.012;6.556;2023-07-31T09:01:01;2.80;;;2.38;;
52742;SDS011;55583;53.012;6.556;2023-07-31T09:03:28;7.65;;;2.50;;
52742;SDS011;55583;53.012;6.556;2023-07-31T09:05:58;3.38;;;2.30;;
52742;SDS011;55583;53.012;6.556;2023-07-31T09:08:24;5.18;;;2.00;;
52742;SDS011;55583;53.012;6.556;2023-07-31T09:10:57;2.53;;;1.98;;
52742;SDS011;55583;53.012;6.556;2023-07-31T09:13:26;3.17;;;1.90;;
52742;SDS011;55583;53.012;6.556;2023-07-31T09:15:53;4.88;;;2.20;;
52742;SDS011;55583;53.012;6.556;2023-07-31T09:18:19;2.13;;;1.92;;
52742;SDS011;55583;53.012;6.556;2023-07-31T09:21:00;4.00;;;1.98;;
52742;SDS011;55583;53.012;6.556;2023-07-31T09:23:42;2.33;;;1.40;;
52742;SDS011;55583;53.012;6.556;2023-07-31T09:26:09;2.38;;;1.50;;
52742;SDS011;55583;53.012;6.556;2023-07-31T09:28:35;3.80;;;1.77;;
52742;SDS011;55583;53.012;6.556;2023-07-31T09:31:00;3.30;;;1.60;;
52742;SDS011;55583;53.012;6.556;2023-07-31T09:33:26;4.30;;;1.80;;
52742;SDS011;55583;53.012;6.556;2023-07-31T09:35:52;1.38;;;1.17;;
52742;SDS011;55583;53.012;6.556;2023-07-31T09:38:17;1.10;;;0.88;;
52742;SDS011;55583;53.012;6.556;2023-07-31T09:40:45;2.67;;;1.20;;
52742;SDS011;55583;53.012;6.556;2023-07-31T09:43:13;1.73;;;1.30;;
52742;SDS011;55583;53.012;6.556;2023-07-31T09:45:42;3.92;;;1.38;;
52742;SDS011;55583;53.012;6.556;2023-07-31T09:48:10;5.22;;;1.52;;
52742;SDS011;55583;53.012;6.556;2023-07-31T09:50:37;2.17;;;1.30;;
52742;SDS011;55583;53.012;6.556;2023-07-31T09:53:04;6.60;;;1.30;;
52742;SDS011;55583;53.012;6.556;2023-07-31T09:55:31;1.30;;;1.20;;
52742;SDS011;55583;53.012;6.556;2023-07-31T09:57:58;1.38;;;0.93;;
52742;SDS011;55583;53.012;6.556;2023-07-31T10:00:24;2.33;;;0.95;;
52742;SDS011;55583;53.012;6.556;2023-07-31T10:02:52;3.60;;;1.38;;
52742;SDS011;55583;53.012;6.556;2023-07-31T10:05:19;2.88;;;1.40;;
52742;SDS011;55583;53.012;6.556;2023-07-31T10:07:52;0.85;;;0.80;;
52742;SDS011;55583;53.012;6.556;2023-07-31T10:10:21;1.73;;;1.20;;
52742;SDS011;55583;53.012;6.556;2023-07-31T10:12:50;1.85;;;1.42;;
52742;SDS011;55583;53.012;6.556;2023-07-31T10:15:17;2.75;;;1.70;;
52742;SDS011;55583;53.012;6.556;2023-07-31T10:17:43;2.78;;;1.10;;
52742;SDS011;55583;53.012;6.556;2023-07-31T10:20:10;1.50;;;1.40;;
52742;SDS011;55583;53.012;6.556;2023-07-31T10:22:36;3.17;;;1.33;;
52742;SDS011;55583;53.012;6.556;2023-07-31T10:25:01;1.40;;;1.30;;
52742;SDS011;55583;53.012;6.556;2023-07-31T10:27:27;1.42;;;1.00;;
52742;SDS011;55583;53.012;6.556;2023-07-31T10:29:57;1.38;;;0.90;;
52742;SDS011;55583;53.012;6.556;2023-07-31T10:32:24;1.27;;;1.05;;
52742;SDS011;55583;53.012;6.556;2023-07-31T10:34:50;0.70;;;0.70;;
52742;SDS011;55583;53.012;6.556;2023-07-31T10:37:27;1.65;;;1.05;;
52742;SDS011;55583;53.012;6.556;2023-07-31T10:40:02;1.60;;;1.00;;
52742;SDS011;55583;53.012;6.556;2023-07-31T10:42:56;0.65;;;0.65;;
52742;SDS011;55583;53.012;6.556;2023-07-31T10:48:00;0.35;;;0.35;;
52742;SDS011;55583;53.012;6.556;2023-07-31T10:50:27;0.35;;;0.35;;
52742;SDS011;55583;53.012;6.556;2023-07-31T10:52:54;0.28;;;0.28;;
52742;SDS011;55583;53.012;6.556;2023-07-31T10:55:26;0.35;;;0.35;;
52742;SDS011;55583;53.012;6.556;2023-07-31T10:57:53;0.80;;;0.57;;
52742;SDS011;55583;53.012;6.556;2023-07-31T11:00:26;0.55;;;0.50;;
52742;SDS011;55583;53.012;6.556;2023-07-31T11:03:03;1.42;;;0.88;;
52742;SDS011;55583;53.012;6.556;2023-07-31T11:05:40;1.02;;;0.60;;
52742;SDS011;55583;53.012;6.556;2023-07-31T11:10:49;0.90;;;0.80;;
52742;SDS011;55583;53.012;6.556;2023-07-31T11:13:17;1.23;;;1.00;;
52742;SDS011;55583;53.012;6.556;2023-07-31T11:15:42;1.85;;;0.90;;
52742;SDS011;55583;53.012;6.556;2023-07-31T11:18:08;2.83;;;0.90;;
52742;SDS011;55583;53.012;6.556;2023-07-31T11:20:36;1.83;;;0.82;;
52742;SDS011;55583;53.012;6.556;2023-07-31T11:23:05;1.75;;;0.88;;
52742;SDS011;55583;53.012;6.556;2023-07-31T11:25:32;1.00;;;0.60;;
52742;SDS011;55583;53.012;6.556;2023-07-31T11:28:05;1.50;;;0.60;;
52742;SDS011;55583;53.012;6.556;2023-07-31T11:30:32;1.13;;;0.68;;
52742;SDS011;55583;53.012;6.556;2023-07-31T11:32:58;2.13;;;0.70;;
52742;SDS011;55583;53.012;6.556;2023-07-31T11:35:24;1.35;;;0.40;;
52742;SDS011;55583;53.012;6.556;2023-07-31T11:37:50;1.55;;;0.32;;
52742;SDS011;55583;53.012;6.556;2023-07-31T11:40:16;0.52;;;0.40;;
52742;SDS011;55583;53.012;6.556;2023-07-31T11:42:41;0.60;;;0.43;;
52742;SDS011;55583;53.012;6.556;2023-07-31T11:45:08;1.33;;;0.50;;
52742;SDS011;55583;53.012;6.556;2023-07-31T11:47:35;1.02;;;0.30;;
52742;SDS011;55583;53.012;6.556;2023-07-31T11:50:02;0.77;;;0.30;;
52742;SDS011;55583;53.012;6.556;2023-07-31T11:52:29;0.30;;;0.30;;
52742;SDS011;55583;53.012;6.556;2023-07-31T11:54:57;1.17;;;0.50;;
52742;SDS011;55583;53.012;6.556;2023-07-31T11:57:24;4.32;;;0.50;;
52742;SDS011;55583;53.012;6.556;2023-07-31T11:59:50;1.27;;;0.55;;
52742;SDS011;55583;53.012;6.556;2023-07-31T12:02:16;0.50;;;0.50;;
52742;SDS011;55583;53.012;6.556;2023-07-31T12:04:43;2.10;;;0.77;;
52742;SDS011;55583;53.012;6.556;2023-07-31T12:07:09;0.77;;;0.40;;
52742;SDS011;55583;53.012;6.556;2023-07-31T12:09:34;0.60;;;0.60;;
52742;SDS011;55583;53.012;6.556;2023-07-31T12:12:00;1.27;;;0.60;;
52742;SDS011;55583;53.012;6.556;2023-07-31T12:14:27;1.05;;;0.65;;
52742;SDS011;55583;53.012;6.556;2023-07-31T12:16:56;1.55;;;0.60;;
52742;SDS011;55583;53.012;6.556;2023-07-31T12:19:25;2.22;;;0.80;;
52742;SDS011;55583;53.012;6.556;2023-07-31T12:21:55;0.93;;;0.75;;
52742;SDS011;55583;53.012;6.556;2023-07-31T12:24:21;1.40;;;1.17;;
52742;SDS011;55583;53.012;6.556;2023-07-31T12:26:48;1.33;;;1.02;;
52742;SDS011;55583;53.012;6.556;2023-07-31T12:29:14;1.70;;;0.95;;
52742;SDS011;55583;53.012;6.556;2023-07-31T12:31:43;1.10;;;0.90;;
52742;SDS011;55583;53.012;6.556;2023-07-31T12:34:18;4.68;;;1.60;;
52742;SDS011;55583;53.012;6.556;2023-07-31T12:36:46;2.92;;;1.40;;
52742;SDS011;55583;53.012;6.556;2023-07-31T12:39:14;2.45;;;1.35;;
52742;SDS011;55583;53.012;6.556;2023-07-31T12:41:40;1.98;;;1.50;;
52742;SDS011;55583;53.012;6.556;2023-07-31T12:44:05;3.03;;;1.33;;
52742;SDS011;55583;53.012;6.556;2023-07-31T12:46:31;1.95;;;1.08;;
52742;SDS011;55583;53.012;6.556;2023-07-31T12:48:57;4.13;;;1.60;;
52742;SDS011;55583;53.012;6.556;2023-07-31T12:51:22;3.25;;;1.55;;
52742;SDS011;55583;53.012;6.556;2023-07-31T12:53:48;2.25;;;1.50;;
52742;SDS011;55583;53.012;6.556;2023-07-31T12:56:14;2.35;;;1.88;;
52742;SDS011;55583;53.012;6.556;2023-07-31T12:58:39;3.90;;;2.15;;
52742;SDS011;55583;53.012;6.556;2023-07-31T13:01:05;5.28;;;1.83;;
52742;SDS011;55583;53.012;6.556;2023-07-31T13:03:31;4.15;;;1.80;;
52742;SDS011;55583;53.012;6.556;2023-07-31T13:05:57;3.05;;;1.60;;
52742;SDS011;55583;53.012;6.556;2023-07-31T13:08:23;5.65;;;2.00;;
52742;SDS011;55583;53.012;6.556;2023-07-31T13:10:48;4.97;;;2.33;;
52742;SDS011;55583;53.012;6.556;2023-07-31T13:13:14;5.07;;;2.20;;
52742;SDS011;55583;53.012;6.556;2023-07-31T13:15:40;9.98;;;2.83;;
52742;SDS011;55583;53.012;6.556;2023-07-31T13:18:06;9.50;;;3.00;;
52742;SDS011;55583;53.012;6.556;2023-07-31T13:20:31;6.93;;;2.58;;
52742;SDS011;55583;53.012;6.556;2023-07-31T13:22:57;8.90;;;3.00;;
52742;SDS011;55583;53.012;6.556;2023-07-31T13:25:22;9.07;;;3.17;;
52742;SDS011;55583;53.012;6.556;2023-07-31T13:27:48;6.75;;;2.58;;
52742;SDS011;55583;53.012;6.556;2023-07-31T13:30:14;7.32;;;2.92;;
52742;SDS011;55583;53.012;6.556;2023-07-31T13:32:39;6.18;;;3.15;;
52742;SDS011;55583;53.012;6.556;2023-07-31T13:35:08;9.65;;;3.40;;
52742;SDS011;55583;53.012;6.556;2023-07-31T13:37:34;6.40;;;2.92;;
52742;SDS011;55583;53.012;6.556;2023-07-31T13:40:00;10.43;;;3.50;;
52742;SDS011;55583;53.012;6.556;2023-07-31T13:42:26;8.57;;;3.45;;
52742;SDS011;55583;53.012;6.556;2023-07-31T13:44:53;8.18;;;3.60;;
52742;SDS011;55583;53.012;6.556;2023-07-31T13:47:21;11.15;;;3.13;;
52742;SDS011;55583;53.012;6.556;2023-07-31T13:49:46;9.10;;;3.85;;
52742;SDS011;55583;53.012;6.556;2023-07-31T13:52:12;7.25;;;3.38;;
52742;SDS011;55583;53.012;6.556;2023-07-31T13:54:38;10.05;;;3.55;;
52742;SDS011;55583;53.012;6.556;2023-07-31T13:57:03;11.10;;;3.30;;
52742;SDS011;55583;53.012;6.556;2023-07-31T13:59:29;10.18;;;3.05;;
52742;SDS011;55583;53.012;6.556;2023-07-31T14:01:55;14.35;;;4.22;;
52742;SDS011;55583;53.012;6.556;2023-07-31T14:04:20;9.52;;;3.45;;
52742;SDS011;55583;53.012;6.556;2023-07-31T14:06:46;13.77;;;3.38;;
52742;SDS011;55583;53.012;6.556;2023-07-31T14:09:13;8.80;;;3.05;;
52742;SDS011;55583;53.012;6.556;2023-07-31T14:11:39;7.05;;;3.17;;
52742;SDS011;55583;53.012;6.556;2023-07-31T14:14:05;11.13;;;2.85;;
52742;SDS011;55583;53.012;6.556;2023-07-31T14:16:30;9.60;;;3.67;;
52742;SDS011;55583;53.012;6.556;2023-07-31T14:18:56;9.93;;;3.58;;
52742;SDS011;55583;53.012;6.556;2023-07-31T14:21:24;9.43;;;3.22;;
52742;SDS011;55583;53.012;6.556;2023-07-31T14:23:50;10.68;;;3.70;;
52742;SDS011;55583;53.012;6.556;2023-07-31T14:26:16;10.90;;;2.92;;
52742;SDS011;55583;53.012;6.556;2023-07-31T14:28:42;8.85;;;3.63;;
52742;SDS011;55583;53.012;6.556;2023-07-31T14:31:08;11.40;;;3.65;;
52742;SDS011;55583;53.012;6.556;2023-07-31T14:33:34;8.73;;;3.38;;
52742;SDS011;55583;53.012;6.556;2023-07-31T14:36:00;7.07;;;3.25;;
52742;SDS011;55583;53.012;6.556;2023-07-31T14:38:26;8.95;;;4.03;;
52742;SDS011;55583;53.012;6.556;2023-07-31T14:40:51;12.55;;;3.90;;
52742;SDS011;55583;53.012;6.556;2023-07-31T14:43:17;6.75;;;2.78;;
52742;SDS011;55583;53.012;6.556;2023-07-31T14:45:43;8.50;;;3.60;;
52742;SDS011;55583;53.012;6.556;2023-07-31T14:48:08;7.30;;;3.40;;
52742;SDS011;55583;53.012;6.556;2023-07-31T14:50:34;7.35;;;3.40;;
52742;SDS011;55583;53.012;6.556;2023-07-31T14:53:00;8.35;;;3.60;;
52742;SDS011;55583;53.012;6.556;2023-07-31T14:55:26;10.35;;;3.83;;
52742;SDS011;55583;53.012;6.556;2023-07-31T14:57:51;10.25;;;3.85;;